Map

Track Data

SID SEASON NUMBER BASIN SUBBASIN NAME ISO_TIME NATURE LAT LON WMO_WIND WMO_PRES WMO_AGENCY TRACK_TYPE DIST2LAND LANDFALL IFLAG USA_AGENCY USA_ATCF_ID USA_LAT USA_LON USA_RECORD USA_STATUS USA_WIND USA_PRES USA_SSHS USA_R34_NE USA_R34_SE USA_R34_SW USA_R34_NW USA_R50_NE USA_R50_SE USA_R50_SW USA_R50_NW USA_R64_NE USA_R64_SE USA_R64_SW USA_R64_NW USA_POCI USA_ROCI USA_RMW USA_EYE TOKYO_LAT TOKYO_LON TOKYO_GRADE TOKYO_WIND TOKYO_PRES TOKYO_R50_DIR TOKYO_R50_LONG TOKYO_R50_SHORT TOKYO_R30_DIR TOKYO_R30_LONG TOKYO_R30_SHORT TOKYO_LAND CMA_LAT CMA_LON CMA_CAT CMA_WIND CMA_PRES HKO_LAT HKO_LON HKO_CAT HKO_WIND HKO_PRES NEWDELHI_LAT NEWDELHI_LON NEWDELHI_GRADE NEWDELHI_WIND NEWDELHI_PRES NEWDELHI_CI NEWDELHI_DP NEWDELHI_POCI REUNION_LAT REUNION_LON REUNION_TYPE REUNION_WIND REUNION_PRES REUNION_TNUM REUNION_CI REUNION_RMW REUNION_R34_NE REUNION_R34_SE REUNION_R34_SW REUNION_R34_NW REUNION_R50_NE REUNION_R50_SE REUNION_R50_SW REUNION_R50_NW REUNION_R64_NE REUNION_R64_SE REUNION_R64_SW REUNION_R64_NW BOM_LAT BOM_LON BOM_TYPE BOM_WIND BOM_PRES BOM_TNUM BOM_CI BOM_RMW BOM_R34_NE BOM_R34_SE BOM_R34_SW BOM_R34_NW BOM_R50_NE BOM_R50_SE BOM_R50_SW BOM_R50_NW BOM_R64_NE BOM_R64_SE BOM_R64_SW BOM_R64_NW BOM_ROCI BOM_POCI BOM_EYE BOM_POS_METHOD BOM_PRES_METHOD NADI_LAT NADI_LON NADI_CAT NADI_WIND NADI_PRES WELLINGTON_LAT WELLINGTON_LON WELLINGTON_WIND WELLINGTON_PRES DS824_LAT DS824_LON DS824_STAGE DS824_WIND DS824_PRES TD9636_LAT TD9636_LON TD9636_STAGE TD9636_WIND TD9636_PRES TD9635_LAT TD9635_LON TD9635_WIND TD9635_PRES TD9635_ROCI NEUMANN_LAT NEUMANN_LON NEUMANN_CLASS NEUMANN_WIND NEUMANN_PRES MLC_LAT MLC_LON MLC_CLASS MLC_WIND MLC_PRES USA_GUST BOM_GUST BOM_GUST_PER REUNION_GUST REUNION_GUST_PER USA_SEAHGT USA_SEARAD_NE USA_SEARAD_SE USA_SEARAD_SW USA_SEARAD_NW STORM_SPEED STORM_DIR
1877129S08088 1877 13 SI MM NOT_NAMED 1877-05-09 00:00:00 TS -8.30000 87.7000 main 1444 1444 _________O____ -1 -8.30000 87.7000 TC 4 259
1877129S08088 1877 13 SI MM NOT_NAMED 1877-05-09 03:00:00 TS -8.34002 87.4925 main 1463 1463 _________P____ -1 -8.34002 87.4925 TC 4 256
1877129S08088 1877 13 SI MM NOT_NAMED 1877-05-09 06:00:00 TS -8.40000 87.3000 main 1488 1488 _________O____ -1 -8.40000 87.3000 TC 4 247
1877129S08088 1877 13 SI MM NOT_NAMED 1877-05-09 09:00:00 TS -8.49249 87.1350 main 1513 1513 _________P____ -1 -8.49249 87.1350 TC 4 236
1877129S08088 1877 13 SI MM NOT_NAMED 1877-05-09 12:00:00 TS -8.60000 87.0000 main 1528 1528 _________O____ -1 -8.60000 87.0000 TC 3 228
1877129S08088 1877 13 SI MM NOT_NAMED 1877-05-09 15:00:00 TS -8.69998 86.9000 main 1543 1543 _________P____ -1 -8.69998 86.9000 TC 3 225
1877129S08088 1877 13 SI MM NOT_NAMED 1877-05-09 18:00:00 TS -8.80000 86.8000 main 1558 1558 _________O____ -1 -8.80000 86.8000 TC 3 231
1877129S08088 1877 13 SI MM NOT_NAMED 1877-05-09 21:00:00 TS -8.90001 86.6500 main 1573 1573 _________P____ -1 -8.90001 86.6500 TC 4 236
1877129S08088 1877 13 SI MM NOT_NAMED 1877-05-10 00:00:00 TS -9.00000 86.5000 main 1598 1598 _________O____ -1 -9.00000 86.5000 TC 3 231
1877129S08088 1877 13 SI MM NOT_NAMED 1877-05-10 03:00:00 TS -9.09998 86.4000 main 1613 1613 _________P____ -1 -9.09998 86.4000 TC 3 225
1877129S08088 1877 13 SI MM NOT_NAMED 1877-05-10 06:00:00 TS -9.20000 86.3000 main 1628 1628 _________O____ -1 -9.20000 86.3000 TC 3 230
1877129S08088 1877 13 SI MM NOT_NAMED 1877-05-10 09:00:00 TS -9.30000 86.1575 main 1643 1643 _________P____ -1 -9.30000 86.1575 TC 4 236
1877129S08088 1877 13 SI MM NOT_NAMED 1877-05-10 12:00:00 TS -9.40000 86.0000 main 1668 1668 _________O____ -1 -9.40000 86.0000 TC 4 237
1877129S08088 1877 13 SI MM NOT_NAMED 1877-05-10 15:00:00 TS -9.49999 85.8500 main 1692 1692 _________P____ -1 -9.49999 85.8500 TC 4 236
1877129S08088 1877 13 SI MM NOT_NAMED 1877-05-10 18:00:00 TS -9.60000 85.7000 main 1708 1708 _________O____ -1 -9.60000 85.7000 TC 4 235
1877129S08088 1877 13 SI MM NOT_NAMED 1877-05-10 21:00:00 TS -9.70749 85.5500 main 1723 1723 _________P____ -1 -9.70749 85.5500 TC 4 236
1877129S08088 1877 13 SI MM NOT_NAMED 1877-05-11 00:00:00 TS -9.80000 85.4000 main 1747 1747 _________O____ -1 -9.80000 85.4000 TC 3 245
1877129S08088 1877 13 SI MM NOT_NAMED 1877-05-11 03:00:00 TS -9.85000 85.2425 main 1772 1772 _________P____ -1 -9.85000 85.2425 TC 3 251
1877129S08088 1877 13 SI MM NOT_NAMED 1877-05-11 06:00:00 TS -9.90000 85.1000 main 1781 1781 _________O____ -1 -9.90000 85.1000 TC 3 239
1877129S08088 1877 13 SI MM NOT_NAMED 1877-05-11 09:00:00 TS -9.99248 85.0000 main 1797 1797 _________P____ -1 -9.99248 85.0000 TC 3 225
1877129S08088 1877 13 SI MM NOT_NAMED 1877-05-11 12:00:00 TS -10.1000 84.9000 main 1812 1812 _________O____ -1 -10.1000 84.9000 TC 3 231
1877129S08088 1877 13 SI MM NOT_NAMED 1877-05-11 15:00:00 TS -10.1925 84.7500 main 1827 1836 _________P____ -1 -10.1925 84.7500 TC 4 236
1877129S08088 1877 13 SI MM NOT_NAMED 1877-05-11 18:00:00 TS -10.3000 84.6000 main 1851 1851 _________O____ -1 -10.3000 84.6000 TC 4 224
1877129S08088 1877 13 SI MM NOT_NAMED 1877-05-11 21:00:00 TS -10.4500 84.5000 main 1866 1866 _________P____ -1 -10.4500 84.5000 TC 4 213
1877129S08088 1877 13 SI MM NOT_NAMED 1877-05-12 00:00:00 TS -10.6000 84.4000 main 1887 1887 _________O____ -1 -10.6000 84.4000 TC 4 223
1877129S08088 1877 13 SI MM NOT_NAMED 1877-05-12 03:00:00 TS -10.7075 84.2575 main 1902 1902 _________P____ -1 -10.7075 84.2575 TC 4 236
1877129S08088 1877 13 SI MM NOT_NAMED 1877-05-12 06:00:00 TS -10.8000 84.1000 main 1910 1908 _________O____ -1 -10.8000 84.1000 TC 4 238
1877129S08088 1877 13 SI MM NOT_NAMED 1877-05-12 09:00:00 TS -10.9000 83.9500 main 1917 1917 _________P____ -1 -10.9000 83.9500 TC 4 236
1877129S08088 1877 13 SI MM NOT_NAMED 1877-05-12 12:00:00 TS -11.0000 83.8000 main 1926 1924 _________O____ -1 -11.0000 83.8000 TC 4 236
1877129S08088 1877 13 SI MM NOT_NAMED 1877-05-12 15:00:00 TS -11.1000 83.6500 main 1935 1933 _________P____ -1 -11.1000 83.6500 TC 4 236
1877129S08088 1877 13 SI MM NOT_NAMED 1877-05-12 18:00:00 TS -11.2000 83.5000 main 1942 1940 _________O____ -1 -11.2000 83.5000 TC 4 236
1877129S08088 1877 13 SI MM NOT_NAMED 1877-05-12 21:00:00 TS -11.3000 83.3500 main 1951 1950 _________P____ -1 -11.3000 83.3500 TC 4 236
1877129S08088 1877 13 SI MM NOT_NAMED 1877-05-13 00:00:00 TS -11.4000 83.2000 main 1959 _________O____ -1 -11.4000 83.2000 TC 4 236

About IBTrACS Database

This database is a web-friendly format of International Best Track Archive for Climate Stewardship (IBTrACS), a global best track data archive curated by NOAA dating back to 1842.

Updated: 2021-10-25